Aérodrome :
LOGIN :

S'inscrire | Disclaimer

   EN    FR    IT 

 










Légende :    VFR   VFR Marginal   IFR   IFR Intensif   IFR Très Intensif
Visi : 
Plafond : 
>= 8 km
>= 3000ft
5 à 8 km
1000 à 3000 ft
1500m à 5 km
500 à 1000 ft
800 à 1500m
200 à 500 ft
< 800m
< 200 ft
Symboles :   Orages  Brouillard  Fortes neiges  Fortes précipitations  Vent > 20 kt
SIGMETs :   Divers  Orages  Givrage  Turbulence  Onde Orograph.  Cendres Volcan.







- Altitude de l'aérodrome : 404 ft
- Code IATA : WRO


EPWR - Wroclaw

DERNIER METAR :
  • 162330Z 12003KT 9999 MIFG NSC 10/09 Q1024

METARs EXPIRÉS :
  • 162300Z 14003KT 9999 MIFG NSC 11/10 Q1024
  • 162230Z VRB01KT 9999 MIFG NSC 10/08 Q1024
  • 162200Z VRB02KT 9999 MIFG NSC 12/10 Q1024
  • 162130Z VRB01KT 9999 MIFG NSC 14/11 Q1024
  • 162100Z VRB02KT CAVOK 12/10 Q1024

TAF TAF EPWR
Valide du 17 à 00h jusqu'au 18 à 00h UTC


162330Z 1700/1724 15004KT CAVOK
TEMPO 1700/1707 2500 BR
PROB40
TEMPO 1700/1706 0300 FG
Pas de NOTAMs connus pour ce terrain.



MET'MAP, la Météo Aéronautique d'un coup d'oeil ! - Copyright ORBIFLY Décembre 2007 - Disclaimer

ORBIFLY MET'MAP TEAM :

Programmation & Développement : Alexandra Zaïnal
Conception & Développement : Baudouin d'Aumeries
Co-Programmation & Développement : Marc-Olivier Méhu
Soutien technique & logistique : Manuel Goepfert

Contact : metmap@orbifly.com




SOURCES & CREDITS :

   NOAA